Time;durP1;ratioP1;P1;durP2;ratioP2;P2;SDS_P1;SDS_P2;PMS_P1;PMS_P2;Temp;Humidity;BMP_temperature;BMP_pressure;BME280_temperature;BME280_humidity;BME280_pressure;Samples;Min_cycle;Max_cycle;Signal;HPM_P1;HPM_P2
2023/07/27 00:00:25;;;;;;;;;;;19.00;99.90;;;;;;5092775;28;24094;-70
2023/07/27 00:02:52;;;;;;;;;;;18.90;99.90;;;;;;5092282;28;19908;-70
2023/07/27 00:05:18;;;;;;;;;;;19.50;99.90;;;;;;5091808;28;19983;-71
2023/07/27 00:07:45;;;;;;;;;;;19.20;99.90;;;;;;5084343;28;19955;-70
2023/07/27 00:10:12;;;;;;;;;;;19.90;99.90;;;;;;5091897;28;25059;-70
2023/07/27 00:12:38;;;;;;;;;;;20.60;99.90;;;;;;5091552;28;25065;-70
2023/07/27 00:15:05;;;;;;;;;;;20.30;99.90;;;;;;5093701;28;19904;-70
2023/07/27 00:17:32;;;;;;;;;;;20.70;99.90;;;;;;5093694;28;25050;-70
2023/07/27 00:19:59;;;;;;;;;;;20.70;99.90;;;;;;5093940;28;19954;-70
2023/07/27 00:22:26;;;;;;;;;;;20.30;99.90;;;;;;5090371;28;19956;-70
2023/07/27 00:24:52;;;;;;;;;;;20.50;99.90;;;;;;5076961;28;19912;-70
2023/07/27 00:27:19;;;;;;;;;;;20.00;99.90;;;;;;5092557;28;20059;-70
2023/07/27 00:29:46;;;;;;;;;;;20.40;99.90;;;;;;5091928;28;25073;-70
2023/07/27 00:32:12;;;;;;;;;;;21.20;99.90;;;;;;5091204;28;25104;-70
2023/07/27 00:34:39;;;;;;;;;;;21.50;99.90;;;;;;5083928;28;20057;-71
2023/07/27 00:37:06;;;;;;;;;;;20.20;99.90;;;;;;5082310;28;19979;-70
2023/07/27 00:39:34;;;;;;;;;;;20.20;99.90;;;;;;5083881;28;19920;-69
2023/07/27 00:42:00;;;;;;;;;;;20.90;99.90;;;;;;5083965;28;19912;-69
2023/07/27 00:44:27;;;;;;;;;;;21.20;99.90;;;;;;5082430;28;19989;-70
2023/07/27 00:46:54;;;;;;;;;;;20.90;99.90;;;;;;5080058;28;25066;-70
2023/07/27 00:49:20;;;;;;;;;;;21.40;99.90;;;;;;5081001;28;25135;-70
2023/07/27 00:51:47;;;;;;;;;;;21.20;99.90;;;;;;5082507;28;19988;-70
2023/07/27 00:54:14;;;;;;;;;;;20.70;99.90;;;;;;5082874;28;20624;-70
2023/07/27 00:56:41;;;;;;;;;;;21.00;99.90;;;;;;5083733;28;25112;-70
2023/07/27 00:59:08;;;;;;;;;;;21.30;99.90;;;;;;5080433;28;19972;-70
2023/07/27 01:01:35;;;;;;;;;;;21.70;99.90;;;;;;5080608;28;20086;-69
2023/07/27 01:04:01;;;;;;;;;;;22.40;99.90;;;;;;5076784;28;20617;-70
2023/07/27 01:06:29;;;;;;;;;;;22.40;99.90;;;;;;5070993;28;20475;-70
2023/07/27 01:12:13;;;;;;;;;;;22.80;99.90;;;;;;5078682;28;20094;-71
2023/07/27 01:15:03;;;;;;;;;;;23.30;99.90;;;;;;5091768;28;20139;-71
2023/07/27 01:17:38;;;;;;;;;;;23.30;99.90;;;;;;5091695;28;20098;-72
2023/07/27 01:20:07;;;;;;;;;;;23.00;99.90;;;;;;5090911;28;20142;-69
2023/07/27 01:22:34;;;;;;;;;;;23.20;99.90;;;;;;5090006;28;25147;-71
2023/07/27 01:25:01;;;;;;;;;;;23.00;99.90;;;;;;5091475;28;19949;-71
2023/07/27 01:27:36;;;;;;;;;;;22.60;99.90;;;;;;5091254;28;19958;-72
2023/07/27 01:30:21;;;;;;;;;;;23.20;99.90;;;;;;5090146;28;20076;-73
2023/07/27 01:32:50;;;;;;;;;;;22.80;99.90;;;;;;5091300;28;20106;-71
2023/07/27 01:35:18;;;;;;;;;;;22.70;99.90;;;;;;5091022;28;25079;-71
2023/07/27 01:37:45;;;;;;;;;;;22.80;99.90;;;;;;5090727;28;25086;-71
2023/07/27 01:40:13;;;;;;;;;;;22.80;99.90;;;;;;5091304;28;20023;-71
2023/07/27 01:42:40;;;;;;;;;;;22.60;99.90;;;;;;5090484;28;25132;-72
2023/07/27 01:45:07;;;;;;;;;;;22.80;99.90;;;;;;5072689;28;19965;-72
2023/07/27 01:47:34;;;;;;;;;;;21.80;99.90;;;;;;5090406;28;20078;-71
2023/07/27 01:50:01;;;;;;;;;;;21.60;99.90;;;;;;5090712;28;20877;-71
2023/07/27 01:52:28;;;;;;;;;;;21.70;99.90;;;;;;5089994;28;25106;-71
2023/07/27 01:54:55;;;;;;;;;;;21.90;99.90;;;;;;5090717;28;20091;-73
2023/07/27 01:57:23;;;;;;;;;;;22.00;99.90;;;;;;5090937;28;20257;-71
2023/07/27 01:59:50;;;;;;;;;;;22.50;99.90;;;;;;5090653;28;20464;-71
2023/07/27 02:02:17;;;;;;;;;;;22.60;99.90;;;;;;5090501;28;25081;-71
2023/07/27 02:04:44;;;;;;;;;;;22.80;99.90;;;;;;5090897;28;25097;-71
2023/07/27 02:07:11;;;;;;;;;;;22.50;99.90;;;;;;5090620;28;20158;-71
2023/07/27 02:09:37;;;;;;;;;;;22.60;99.90;;;;;;5091269;28;20089;-71
2023/07/27 02:12:12;;;;;;;;;;;22.70;99.90;;;;;;5090690;28;20130;-71
2023/07/27 02:15:01;;;;;;;;;;;23.10;99.90;;;;;;5090769;28;20541;-72
2023/07/27 02:17:31;;;;;;;;;;;23.50;99.90;;;;;;5090471;28;20122;-72
2023/07/27 02:20:00;;;;;;;;;;;23.30;99.90;;;;;;5090639;28;20138;-70
2023/07/27 02:22:27;;;;;;;;;;;22.80;99.90;;;;;;5090465;28;20101;-70
2023/07/27 02:24:54;;;;;;;;;;;23.30;99.90;;;;;;5090503;28;20099;-69
2023/07/27 02:27:21;;;;;;;;;;;22.90;99.90;;;;;;5090012;28;20171;-71
2023/07/27 02:29:48;;;;;;;;;;;22.20;99.90;;;;;;5090185;28;20607;-71
2023/07/27 02:32:14;;;;;;;;;;;22.80;99.90;;;;;;5090438;28;20062;-70
2023/07/27 02:34:41;;;;;;;;;;;23.50;99.90;;;;;;5090513;28;20067;-70
2023/07/27 02:37:08;;;;;;;;;;;23.60;99.90;;;;;;5089480;28;25151;-70
2023/07/27 02:39:34;;;;;;;;;;;23.70;99.90;;;;;;5090090;28;25129;-71
2023/07/27 02:42:01;;;;;;;;;;;23.40;99.90;;;;;;5089849;28;20128;-69
2023/07/27 02:44:28;;;;;;;;;;;23.30;99.90;;;;;;5089346;28;20243;-70
2023/07/27 02:46:54;;;;;;;;;;;23.30;99.90;;;;;;5090234;28;20665;-70
2023/07/27 02:49:21;;;;;;;;;;;23.50;99.90;;;;;;5090198;28;25086;-71
2023/07/27 02:51:48;;;;;;;;;;;23.80;99.90;;;;;;5089267;28;19977;-70
2023/07/27 02:54:14;;;;;;;;;;;23.90;99.90;;;;;;5092986;28;19973;-71
2023/07/27 02:56:41;;;;;;;;;;;24.50;99.90;;;;;;5093569;28;20102;-70
2023/07/27 02:59:08;;;;;;;;;;;24.80;99.90;;;;;;5093174;28;20010;-70
2023/07/27 03:01:34;;;;;;;;;;;24.30;99.90;;;;;;5093907;28;20094;-70
2023/07/27 03:04:02;;;;;;;;;;;23.80;99.90;;;;;;5093425;28;20092;-72
2023/07/27 03:06:29;;;;;;;;;;;24.30;99.90;;;;;;5093157;28;19995;-71
2023/07/27 03:08:55;;;;;;;;;;;23.90;99.90;;;;;;5074873;28;19978;-72
2023/07/27 03:11:22;;;;;;;;;;;23.70;99.90;;;;;;5077318;28;20011;-72
2023/07/27 03:13:49;;;;;;;;;;;24.10;99.90;;;;;;5093267;28;20097;-72
2023/07/27 03:16:15;;;;;;;;;;;24.00;99.90;;;;;;5093240;28;20090;-71
2023/07/27 03:18:42;;;;;;;;;;;24.00;99.90;;;;;;5093163;28;20477;-70
2023/07/27 03:21:10;;;;;;;;;;;23.90;99.90;;;;;;5092419;28;20335;-71
2023/07/27 03:23:37;;;;;;;;;;;23.90;99.90;;;;;;5074728;28;20475;-71
2023/07/27 03:26:14;;;;;;;;;;;24.00;99.90;;;;;;5093201;28;20524;-71
2023/07/27 03:28:41;;;;;;;;;;;23.70;99.90;;;;;;5093730;28;20462;-71
2023/07/27 03:31:18;;;;;;;;;;;23.00;99.90;;;;;;5093001;28;20088;-71
2023/07/27 03:33:44;;;;;;;;;;;22.80;99.90;;;;;;5092980;28;20185;-71
2023/07/27 03:36:11;;;;;;;;;;;22.70;99.90;;;;;;5092790;28;20420;-71
2023/07/27 03:38:38;;;;;;;;;;;23.40;99.90;;;;;;5092827;28;20017;-70
2023/07/27 03:41:04;;;;;;;;;;;23.50;99.90;;;;;;5091830;28;19982;-71
2023/07/27 03:43:31;;;;;;;;;;;23.50;99.90;;;;;;5092881;28;20006;-71
2023/07/27 03:45:58;;;;;;;;;;;23.90;99.90;;;;;;5092853;28;20530;-71
2023/07/27 03:48:25;;;;;;;;;;;23.70;99.90;;;;;;5093324;28;20150;-71
2023/07/27 03:50:53;;;;;;;;;;;24.00;99.90;;;;;;5091951;28;20736;-71
2023/07/27 03:53:19;;;;;;;;;;;23.50;99.90;;;;;;5093184;28;20598;-71
2023/07/27 03:55:46;;;;;;;;;;;23.50;99.90;;;;;;5092936;28;19977;-72
2023/07/27 03:58:13;;;;;;;;;;;23.90;99.90;;;;;;5092059;28;19989;-71
2023/07/27 04:00:40;;;;;;;;;;;24.20;99.90;;;;;;5092352;28;20103;-71
2023/07/27 04:03:06;;;;;;;;;;;24.00;99.50;;;;;;5092295;28;19977;-71
2023/07/27 04:05:33;;;;;;;;;;;24.00;99.10;;;;;;5091013;28;20478;-73
2023/07/27 04:08:00;;;;;;;;;;;23.90;96.70;;;;;;5092624;28;19970;-73
2023/07/27 04:10:29;;;;;;;;;;;23.60;94.30;;;;;;5091912;28;20599;-72
2023/07/27 04:12:55;;;;;;;;;;;23.40;96.30;;;;;;5082354;28;20519;-72
2023/07/27 04:15:22;;;;;;;;;;;23.80;97.40;;;;;;5078262;28;19980;-73
2023/07/27 04:17:49;;;;;;;;;;;23.80;97.10;;;;;;5091899;28;20110;-71
2023/07/27 04:20:15;;;;;;;;;;;23.90;95.20;;;;;;5091687;28;20102;-72
2023/07/27 04:22:42;;;;;;;;;;;23.70;93.90;;;;;;5088338;28;20093;-70
2023/07/27 04:25:09;;;;;;;;;;;23.70;93.20;;;;;;5072000;28;20094;-71
2023/07/27 04:27:35;;;;;;;;;;;23.70;91.80;;;;;;5078410;28;19984;-70
2023/07/27 04:30:06;;;;;;;;;;;24.10;91.90;;;;;;5091514;28;20231;-71
2023/07/27 04:32:33;;;;;;;;;;;24.30;93.30;;;;;;5091999;28;19992;-71
2023/07/27 04:34:59;;;;;;;;;;;24.30;92.20;;;;;;5090971;28;20621;-72
2023/07/27 04:37:26;;;;;;;;;;;24.50;89.90;;;;;;5092239;28;20110;-71
2023/07/27 04:39:53;;;;;;;;;;;24.10;89.10;;;;;;5091561;28;20091;-72
2023/07/27 04:42:19;;;;;;;;;;;24.20;93.10;;;;;;5091037;28;20087;-71
2023/07/27 04:44:47;;;;;;;;;;;24.40;90.10;;;;;;5091610;28;20600;-70
2023/07/27 04:47:13;;;;;;;;;;;23.90;90.00;;;;;;5090869;28;20218;-72
2023/07/27 04:49:40;;;;;;;;;;;23.90;90.40;;;;;;5091493;28;20235;-71
2023/07/27 04:52:07;;;;;;;;;;;23.70;90.60;;;;;;5091786;28;20097;-72
2023/07/27 04:54:33;;;;;;;;;;;23.30;92.10;;;;;;5091922;28;20463;-71
2023/07/27 04:57:00;;;;;;;;;;;23.50;91.20;;;;;;5090498;28;19973;-72
2023/07/27 04:59:27;;;;;;;;;;;23.50;91.40;;;;;;5091586;28;20109;-72
2023/07/27 05:01:53;;;;;;;;;;;23.40;92.10;;;;;;5091498;28;20106;-71
2023/07/27 05:04:20;;;;;;;;;;;23.50;90.70;;;;;;5090983;28;20126;-72
2023/07/27 05:06:47;;;;;;;;;;;23.70;90.50;;;;;;5090776;28;20129;-71
2023/07/27 05:09:14;;;;;;;;;;;23.70;90.10;;;;;;5091167;28;20098;-71
2023/07/27 05:11:41;;;;;;;;;;;23.60;91.30;;;;;;5090879;28;20504;-72
2023/07/27 05:14:07;;;;;;;;;;;23.60;92.10;;;;;;5091246;28;20410;-72
2023/07/27 05:16:34;;;;;;;;;;;23.60;92.60;;;;;;5090798;28;20587;-72
2023/07/27 05:19:01;;;;;;;;;;;23.50;92.60;;;;;;5092879;28;19972;-72
2023/07/27 05:21:27;;;;;;;;;;;23.60;92.00;;;;;;5092804;28;20106;-72
2023/07/27 05:23:54;;;;;;;;;;;23.50;92.80;;;;;;5092637;28;20096;-72
2023/07/27 05:26:21;;;;;;;;;;;23.40;93.00;;;;;;5092582;28;20116;-71
2023/07/27 05:28:47;;;;;;;;;;;23.20;93.30;;;;;;5073624;28;20094;-72
2023/07/27 05:31:14;;;;;;;;;;;22.90;93.00;;;;;;5092488;28;20014;-72
2023/07/27 05:33:41;;;;;;;;;;;22.70;95.10;;;;;;5092329;28;20402;-72
2023/07/27 05:36:07;;;;;;;;;;;22.80;96.20;;;;;;5092953;28;20311;-72
2023/07/27 05:38:34;;;;;;;;;;;22.90;96.80;;;;;;5091840;28;20096;-71
2023/07/27 05:41:01;;;;;;;;;;;23.00;94.80;;;;;;5092615;28;20148;-71
2023/07/27 05:43:28;;;;;;;;;;;22.70;95.50;;;;;;5092772;28;20135;-72
2023/07/27 05:45:55;;;;;;;;;;;22.10;97.40;;;;;;5093527;28;20165;-71
2023/07/27 05:48:22;;;;;;;;;;;21.70;98.00;;;;;;5092149;28;20002;-72
2023/07/27 05:50:51;;;;;;;;;;;21.50;99.90;;;;;;5092885;28;20087;-71
2023/07/27 05:53:18;;;;;;;;;;;21.40;99.20;;;;;;5087874;28;20138;-70
2023/07/27 05:55:45;;;;;;;;;;;21.30;99.80;;;;;;5069892;28;20165;-72
2023/07/27 05:58:12;;;;;;;;;;;21.10;99.90;;;;;;5090896;28;20130;-72
2023/07/27 06:00:39;;;;;;;;;;;20.80;99.90;;;;;;5090804;28;20085;-72
2023/07/27 06:03:06;;;;;;;;;;;20.60;99.90;;;;;;5089934;28;20084;-72
2023/07/27 06:05:32;;;;;;;;;;;20.60;99.90;;;;;;5090963;28;20029;-72
2023/07/27 06:07:59;;;;;;;;;;;20.60;99.90;;;;;;5090362;28;24064;-72
2023/07/27 06:10:26;;;;;;;;;;;20.60;99.90;;;;;;5089782;28;20154;-72
2023/07/27 06:12:53;;;;;;;;;;;20.60;99.90;;;;;;5091420;28;19908;-73
2023/07/27 06:15:20;;;;;;;;;;;20.40;99.90;;;;;;5090982;28;20115;-74
2023/07/27 06:17:47;;;;;;;;;;;20.20;99.90;;;;;;5091034;28;20113;-72
2023/07/27 06:20:14;;;;;;;;;;;20.10;99.90;;;;;;5073373;28;20087;-74
2023/07/27 06:22:40;;;;;;;;;;;20.00;99.90;;;;;;5091229;28;19940;-73
2023/07/27 06:25:08;;;;;;;;;;;20.00;99.90;;;;;;5090304;28;20084;-74
2023/07/27 06:27:34;;;;;;;;;;;20.00;99.90;;;;;;5090435;28;25063;-73
2023/07/27 06:30:01;;;;;;;;;;;20.10;99.90;;;;;;5095146;28;20369;-70
2023/07/27 06:32:28;;;;;;;;;;;20.00;99.90;;;;;;5093947;28;20474;-72
2023/07/27 06:34:55;;;;;;;;;;;19.90;99.90;;;;;;5094459;28;20045;-73
2023/07/27 06:37:22;;;;;;;;;;;19.70;99.90;;;;;;5099792;28;19904;-71
2023/07/27 06:39:49;;;;;;;;;;;19.60;99.90;;;;;;5102850;28;20031;-71
2023/07/27 06:42:16;;;;;;;;;;;19.60;99.90;;;;;;5102037;28;19915;-71
2023/07/27 06:44:43;;;;;;;;;;;19.40;99.90;;;;;;5103059;28;19990;-72
2023/07/27 06:47:10;;;;;;;;;;;19.20;99.90;;;;;;5098273;28;25076;-71
2023/07/27 06:49:37;;;;;;;;;;;19.10;99.90;;;;;;5076424;28;19955;-72
2023/07/27 06:52:04;;;;;;;;;;;18.90;99.90;;;;;;5094375;28;20171;-71
2023/07/27 06:54:31;;;;;;;;;;;18.80;99.90;;;;;;5093702;28;19959;-71
2023/07/27 06:56:58;;;;;;;;;;;18.70;99.90;;;;;;5096483;28;20116;-71
2023/07/27 06:59:25;;;;;;;;;;;18.60;99.90;;;;;;5079572;28;19963;-71
2023/07/27 07:01:54;;;;;;;;;;;18.40;99.90;;;;;;5098832;28;20078;-71
2023/07/27 07:04:20;;;;;;;;;;;18.20;99.90;;;;;;5100199;28;20419;-72
2023/07/27 07:06:48;;;;;;;;;;;18.00;99.90;;;;;;5101488;28;25065;-72
2023/07/27 07:09:15;;;;;;;;;;;17.80;99.90;;;;;;5096461;28;20649;-71
2023/07/27 07:11:41;;;;;;;;;;;17.60;99.90;;;;;;5096030;28;24078;-72
2023/07/27 07:14:08;;;;;;;;;;;17.40;99.90;;;;;;5096687;28;19908;-72
2023/07/27 07:16:35;;;;;;;;;;;17.20;99.90;;;;;;5095226;28;19915;-71
2023/07/27 07:19:02;;;;;;;;;;;17.00;99.90;;;;;;5096177;28;19914;-72
2023/07/27 07:21:29;;;;;;;;;;;16.80;99.90;;;;;;5079395;28;19908;-72
2023/07/27 07:23:56;;;;;;;;;;;16.60;99.90;;;;;;5095803;28;24068;-72
2023/07/27 07:26:24;;;;;;;;;;;16.40;99.90;;;;;;5095836;28;19922;-73
2023/07/27 07:28:51;;;;;;;;;;;16.30;99.90;;;;;;5096765;28;20026;-72
2023/07/27 07:31:18;;;;;;;;;;;16.20;99.90;;;;;;5097219;28;19915;-73
2023/07/27 07:33:45;;;;;;;;;;;16.20;99.90;;;;;;5095319;28;25056;-73
2023/07/27 07:36:12;;;;;;;;;;;16.10;99.90;;;;;;5075442;28;25144;-72
2023/07/27 07:38:39;;;;;;;;;;;16.00;99.90;;;;;;5092772;28;24073;-73
2023/07/27 07:41:06;;;;;;;;;;;15.90;99.90;;;;;;5093278;28;19904;-72
2023/07/27 07:43:32;;;;;;;;;;;15.70;99.90;;;;;;5093318;28;19915;-72
2023/07/27 07:45:59;;;;;;;;;;;15.50;99.90;;;;;;5093191;28;20281;-72
2023/07/27 07:48:26;;;;;;;;;;;15.40;99.90;;;;;;5093468;28;20519;-73
2023/07/27 07:50:53;;;;;;;;;;;15.20;99.90;;;;;;5093299;28;24070;-71
2023/07/27 07:53:20;;;;;;;;;;;15.20;99.90;;;;;;5092934;28;24083;-72
2023/07/27 07:55:47;;;;;;;;;;;15.00;99.90;;;;;;5092837;28;19947;-74
2023/07/27 07:58:14;;;;;;;;;;;15.00;99.90;;;;;;5093085;28;24066;-72
2023/07/27 08:00:40;;;;;;;;;;;14.90;99.90;;;;;;5092407;28;19908;-72
2023/07/27 08:03:07;;;;;;;;;;;14.90;99.90;;;;;;5092929;28;24107;-72
2023/07/27 08:05:34;;;;;;;;;;;14.80;99.90;;;;;;5092944;28;20322;-72
2023/07/27 08:08:01;;;;;;;;;;;14.80;99.90;;;;;;5074353;28;19908;-72
2023/07/27 08:10:28;;;;;;;;;;;14.70;99.90;;;;;;5092902;28;25116;-72
2023/07/27 08:12:55;;;;;;;;;;;14.70;99.90;;;;;;5092816;28;20024;-71
2023/07/27 08:15:22;;;;;;;;;;;14.50;99.90;;;;;;5092283;28;24076;-72
2023/07/27 08:17:49;;;;;;;;;;;14.40;99.90;;;;;;5092485;28;20338;-72
2023/07/27 08:20:16;;;;;;;;;;;14.30;99.90;;;;;;5092925;28;19904;-71
2023/07/27 08:22:42;;;;;;;;;;;14.20;99.90;;;;;;5092000;28;20083;-71
2023/07/27 08:25:09;;;;;;;;;;;14.10;99.90;;;;;;5090953;28;19916;-72
2023/07/27 08:27:36;;;;;;;;;;;14.00;99.90;;;;;;5093817;28;24084;-71
2023/07/27 08:30:03;;;;;;;;;;;13.90;99.90;;;;;;5094277;28;19908;-71
2023/07/27 08:32:30;;;;;;;;;;;13.90;99.90;;;;;;5084365;28;24067;-70
2023/07/27 08:34:57;;;;;;;;;;;13.80;99.90;;;;;;5092046;28;24074;-71
2023/07/27 08:37:24;;;;;;;;;;;13.80;99.90;;;;;;5092364;28;19977;-71
2023/07/27 08:39:51;;;;;;;;;;;13.80;99.90;;;;;;5092348;28;19905;-71
2023/07/27 08:42:19;;;;;;;;;;;13.70;99.90;;;;;;5073321;28;24087;-71
2023/07/27 08:44:46;;;;;;;;;;;13.70;99.90;;;;;;5091805;28;25068;-70
2023/07/27 08:47:13;;;;;;;;;;;13.70;99.90;;;;;;5091918;28;24144;-71
2023/07/27 08:49:40;;;;;;;;;;;13.60;99.90;;;;;;5092241;28;19915;-71
2023/07/27 08:52:08;;;;;;;;;;;13.50;99.90;;;;;;5091723;28;25154;-71
2023/07/27 08:54:35;;;;;;;;;;;13.50;99.90;;;;;;5091537;28;25067;-71
2023/07/27 08:57:02;;;;;;;;;;;13.50;99.90;;;;;;5091959;28;19997;-71
2023/07/27 08:59:29;;;;;;;;;;;13.60;99.90;;;;;;5092418;28;19915;-72
2023/07/27 09:01:56;;;;;;;;;;;13.70;99.90;;;;;;5091499;28;24082;-71
2023/07/27 09:04:23;;;;;;;;;;;13.60;99.90;;;;;;5091919;28;20009;-71
2023/07/27 09:06:49;;;;;;;;;;;13.50;99.90;;;;;;5091956;28;19928;-71
2023/07/27 09:09:28;;;;;;;;;;;13.40;99.90;;;;;;5091441;28;24097;-71
2023/07/27 09:11:55;;;;;;;;;;;13.30;99.90;;;;;;5091463;28;24064;-71
2023/07/27 09:14:22;;;;;;;;;;;13.20;99.90;;;;;;5092001;28;19904;-71
2023/07/27 09:16:50;;;;;;;;;;;13.10;99.90;;;;;;5090951;28;21443;-72
2023/07/27 09:19:20;;;;;;;;;;;13.10;99.90;;;;;;5091535;28;19907;-71
2023/07/27 09:21:52;;;;;;;;;;;13.00;99.90;;;;;;5091517;28;19951;-70
2023/07/27 09:24:22;;;;;;;;;;;12.90;99.90;;;;;;5091333;28;19914;-71
2023/07/27 09:26:50;;;;;;;;;;;12.90;99.90;;;;;;5091149;28;19923;-71
2023/07/27 09:29:18;;;;;;;;;;;12.90;99.90;;;;;;5091890;28;19939;-71
2023/07/27 09:31:46;;;;;;;;;;;12.90;99.90;;;;;;5090762;28;24070;-71
2023/07/27 09:34:12;;;;;;;;;;;12.80;99.90;;;;;;5091910;28;19908;-72
2023/07/27 09:36:40;;;;;;;;;;;12.70;99.90;;;;;;5091249;28;19970;-71
2023/07/27 09:39:07;;;;;;;;;;;12.60;99.90;;;;;;5072555;28;20217;-71
2023/07/27 09:41:34;;;;;;;;;;;12.60;99.90;;;;;;5091868;28;19908;-71
2023/07/27 09:44:02;;;;;;;;;;;12.50;99.90;;;;;;5091449;28;19916;-72
2023/07/27 09:46:30;;;;;;;;;;;12.40;99.90;;;;;;5092402;28;19923;-72
2023/07/27 09:48:59;;;;;;;;;;;12.40;99.90;;;;;;5092812;28;19996;-72
2023/07/27 09:51:30;;;;;;;;;;;12.30;99.90;;;;;;5074836;28;25130;-71
2023/07/27 09:53:59;;;;;;;;;;;12.20;99.90;;;;;;5074755;28;19904;-72
2023/07/27 09:56:27;;;;;;;;;;;12.10;99.90;;;;;;5092996;28;19953;-71
2023/07/27 09:58:54;;;;;;;;;;;12.10;99.90;;;;;;5093036;28;19962;-71
2023/07/27 10:01:21;;;;;;;;;;;12.10;99.90;;;;;;5092194;28;24046;-71
2023/07/27 10:03:48;;;;;;;;;;;12.00;99.90;;;;;;5091667;28;19911;-71
2023/07/27 10:06:18;;;;;;;;;;;11.90;99.90;;;;;;5092484;28;25086;-71
2023/07/27 10:08:45;;;;;;;;;;;11.90;99.90;;;;;;5092778;28;19904;-71
2023/07/27 10:11:12;;;;;;;;;;;11.80;99.90;;;;;;5092988;28;19904;-71
2023/07/27 10:13:43;;;;;;;;;;;11.80;99.90;;;;;;5092876;28;19904;-71
2023/07/27 10:16:11;;;;;;;;;;;11.80;99.90;;;;;;5092150;28;20272;-71
2023/07/27 10:18:41;;;;;;;;;;;11.60;99.90;;;;;;5075282;28;19943;-71
2023/07/27 10:21:27;;;;;;;;;;;11.60;99.90;;;;;;5092792;28;19962;-71
2023/07/27 10:23:56;;;;;;;;;;;11.50;99.90;;;;;;5092782;28;20455;-71
2023/07/27 10:26:41;;;;;;;;;;;11.50;99.90;;;;;;5092214;28;20019;-71
2023/07/27 10:29:19;;;;;;;;;;;11.50;99.90;;;;;;5093210;28;19911;-71
2023/07/27 10:31:46;;;;;;;;;;;11.50;99.90;;;;;;5092527;28;24119;-71
2023/07/27 10:34:15;;;;;;;;;;;11.40;99.90;;;;;;5092626;28;19908;-71
2023/07/27 10:36:59;;;;;;;;;;;11.40;99.90;;;;;;5092718;28;19912;-71
2023/07/27 10:39:33;;;;;;;;;;;11.40;99.90;;;;;;5093065;28;24068;-72
2023/07/27 10:42:05;;;;;;;;;;;11.40;99.90;;;;;;5092790;28;19911;-71
2023/07/27 10:44:41;;;;;;;;;;;11.30;99.90;;;;;;5091776;28;25069;-70
2023/07/27 10:47:13;;;;;;;;;;;11.20;99.90;;;;;;5091799;28;19968;-71
2023/07/27 10:49:43;;;;;;;;;;;11.20;99.90;;;;;;5092260;28;24076;-71
2023/07/27 10:52:13;;;;;;;;;;;11.20;99.90;;;;;;5074098;28;24143;-71
2023/07/27 10:54:40;;;;;;;;;;;11.00;99.90;;;;;;5073634;28;20002;-71
2023/07/27 10:57:09;;;;;;;;;;;11.00;99.90;;;;;;5091968;28;19960;-71
2023/07/27 10:59:43;;;;;;;;;;;10.90;99.90;;;;;;5091450;28;24078;-71
2023/07/27 11:02:12;;;;;;;;;;;10.90;99.90;;;;;;5092281;28;19904;-70
2023/07/27 11:04:39;;;;;;;;;;;10.80;99.90;;;;;;5091480;28;19908;-71
2023/07/27 11:07:07;;;;;;;;;;;10.90;99.90;;;;;;5075137;28;19969;-71
2023/07/27 11:09:34;;;;;;;;;;;10.80;99.90;;;;;;5087438;28;20155;-69
2023/07/27 11:12:04;;;;;;;;;;;10.80;99.90;;;;;;5088407;28;25126;-70
2023/07/27 11:14:31;;;;;;;;;;;10.80;99.90;;;;;;5072720;28;19994;-70
2023/07/27 11:16:58;;;;;;;;;;;10.70;99.90;;;;;;5093403;28;19908;-70
2023/07/27 11:19:26;;;;;;;;;;;10.70;99.90;;;;;;5093950;28;19907;-69
2023/07/27 11:21:54;;;;;;;;;;;10.70;99.90;;;;;;5093466;28;24111;-70
2023/07/27 11:24:21;;;;;;;;;;;10.70;99.90;;;;;;5093325;28;19986;-69
2023/07/27 11:26:48;;;;;;;;;;;10.70;99.90;;;;;;5093504;28;19916;-69
2023/07/27 11:29:16;;;;;;;;;;;10.70;99.90;;;;;;5093411;28;19966;-70
2023/07/27 11:31:53;;;;;;;;;;;10.60;99.90;;;;;;5093530;28;19904;-70
2023/07/27 11:34:23;;;;;;;;;;;10.70;99.90;;;;;;5094048;28;20449;-70
2023/07/27 11:36:52;;;;;;;;;;;10.60;99.90;;;;;;5092798;28;24163;-71
2023/07/27 11:39:19;;;;;;;;;;;10.50;99.90;;;;;;5092799;28;24142;-70
2023/07/27 11:41:47;;;;;;;;;;;10.50;99.90;;;;;;5093564;28;19912;-70
2023/07/27 11:44:15;;;;;;;;;;;10.50;99.90;;;;;;5093009;28;19965;-72
2023/07/27 11:46:49;;;;;;;;;;;10.40;99.90;;;;;;5093841;28;19985;-70
2023/07/27 11:49:16;;;;;;;;;;;10.40;99.90;;;;;;5095153;28;19904;-71
2023/07/27 11:51:44;;;;;;;;;;;10.40;99.90;;;;;;5094890;28;25126;-70
2023/07/27 11:54:20;;;;;;;;;;;10.40;99.90;;;;;;5094127;28;20407;-70
2023/07/27 11:56:51;;;;;;;;;;;10.30;99.90;;;;;;5095268;28;20273;-71
2023/07/27 11:59:19;;;;;;;;;;;10.30;99.90;;;;;;5094223;28;19904;-70
2023/07/27 12:01:48;;;;;;;;;;;10.30;99.90;;;;;;5094827;28;19926;-70
2023/07/27 12:04:15;;;;;;;;;;;10.30;99.90;;;;;;5094648;28;19904;-70
2023/07/27 12:06:43;;;;;;;;;;;10.30;99.90;;;;;;5094630;28;19962;-70
2023/07/27 12:09:11;;;;;;;;;;;10.20;99.90;;;;;;5094134;28;19908;-70
2023/07/27 12:11:38;;;;;;;;;;;10.20;99.90;;;;;;5093914;28;19961;-70
2023/07/27 12:14:05;;;;;;;;;;;10.10;99.90;;;;;;5094202;28;24096;-70
2023/07/27 12:16:43;;;;;;;;;;;10.10;99.90;;;;;;5075998;28;20276;-70
2023/07/27 12:19:11;;;;;;;;;;;10.10;99.90;;;;;;5091974;28;19922;-70
2023/07/27 12:21:38;;;;;;;;;;;10.00;99.90;;;;;;5094364;28;19915;-71
2023/07/27 12:24:09;;;;;;;;;;;10.00;99.90;;;;;;5093762;28;19961;-70
2023/07/27 12:26:36;;;;;;;;;;;10.00;99.90;;;;;;5093319;28;20353;-70
2023/07/27 12:29:03;;;;;;;;;;;10.00;99.90;;;;;;5093400;28;25083;-71
2023/07/27 12:31:31;;;;;;;;;;;9.90;99.90;;;;;;5093735;28;19914;-70
2023/07/27 12:33:57;;;;;;;;;;;9.80;99.90;;;;;;5093582;28;19915;-70
2023/07/27 12:36:24;;;;;;;;;;;9.80;99.90;;;;;;5094145;28;24804;-70
2023/07/27 12:38:52;;;;;;;;;;;9.80;99.90;;;;;;5076029;28;24042;-71
2023/07/27 12:41:19;;;;;;;;;;;9.70;99.90;;;;;;5094221;28;20323;-70
2023/07/27 12:43:46;;;;;;;;;;;9.80;99.90;;;;;;5093937;28;24147;-70
2023/07/27 12:46:13;;;;;;;;;;;9.70;99.90;;;;;;5093926;28;19911;-71
2023/07/27 12:48:41;;;;;;;;;;;9.70;99.90;;;;;;5094097;28;19930;-70
2023/07/27 12:51:08;;;;;;;;;;;9.70;99.90;;;;;;5093480;28;19954;-70
2023/07/27 12:53:35;;;;;;;;;;;9.60;99.90;;;;;;5093784;28;24068;-69
2023/07/27 12:56:02;;;;;;;;;;;9.60;99.90;;;;;;5093698;28;19907;-70
2023/07/27 12:58:29;;;;;;;;;;;9.60;99.90;;;;;;5093821;28;25145;-69
2023/07/27 13:00:56;;;;;;;;;;;9.50;99.90;;;;;;5093375;28;24061;-70
2023/07/27 13:03:23;;;;;;;;;;;9.50;99.90;;;;;;5093597;28;20380;-70
2023/07/27 13:05:49;;;;;;;;;;;9.40;99.90;;;;;;5093091;28;25130;-69
2023/07/27 13:08:16;;;;;;;;;;;9.30;99.90;;;;;;5093440;28;19908;-70
2023/07/27 13:10:43;;;;;;;;;;;9.30;99.90;;;;;;5093153;28;19904;-70
2023/07/27 13:13:10;;;;;;;;;;;9.20;99.90;;;;;;5093332;28;19908;-70
2023/07/27 13:15:37;;;;;;;;;;;9.20;99.90;;;;;;5093371;28;24076;-70
2023/07/27 13:18:04;;;;;;;;;;;9.10;99.90;;;;;;5093274;28;19912;-71
2023/07/27 13:20:34;;;;;;;;;;;9.10;99.90;;;;;;5093373;28;19935;-70
2023/07/27 13:23:00;;;;;;;;;;;9.20;99.90;;;;;;5093245;28;20304;-70
2023/07/27 13:25:28;;;;;;;;;;;9.10;99.90;;;;;;5074741;28;24179;-70
2023/07/27 13:27:55;;;;;;;;;;;9.10;99.90;;;;;;5093506;28;19915;-70
2023/07/27 13:30:23;;;;;;;;;;;9.20;99.90;;;;;;5093348;28;20411;-70
2023/07/27 13:32:50;;;;;;;;;;;9.10;99.90;;;;;;5092852;28;19908;-70
2023/07/27 13:35:17;;;;;;;;;;;9.10;99.90;;;;;;5075061;28;20357;-70
2023/07/27 13:37:44;;;;;;;;;;;9.10;99.90;;;;;;5093044;28;19911;-70
2023/07/27 13:40:11;;;;;;;;;;;9.10;99.90;;;;;;5093446;28;19910;-70
2023/07/27 13:42:38;;;;;;;;;;;9.10;99.90;;;;;;5093176;28;19926;-70
2023/07/27 13:45:05;;;;;;;;;;;9.20;99.90;;;;;;5093226;28;24067;-69
2023/07/27 13:47:32;;;;;;;;;;;9.10;99.90;;;;;;5092637;28;19970;-71
2023/07/27 13:49:58;;;;;;;;;;;9.00;99.90;;;;;;5093428;28;19923;-70
2023/07/27 13:52:26;;;;;;;;;;;9.00;99.90;;;;;;5093395;28;19911;-71
2023/07/27 13:54:53;;;;;;;;;;;8.90;99.90;;;;;;5092915;28;20268;-70
2023/07/27 13:57:20;;;;;;;;;;;8.90;99.90;;;;;;5092689;28;24117;-70
2023/07/27 13:59:47;;;;;;;;;;;8.80;99.90;;;;;;5074615;28;19904;-71
2023/07/27 14:02:14;;;;;;;;;;;8.70;99.90;;;;;;5092902;28;19912;-71
2023/07/27 14:04:42;;;;;;;;;;;8.70;99.90;;;;;;5092841;28;19908;-70
2023/07/27 14:07:09;;;;;;;;;;;8.60;99.90;;;;;;5092313;28;19919;-70
2023/07/27 14:09:37;;;;;;;;;;;8.70;99.90;;;;;;5093332;28;19912;-70
2023/07/27 14:12:04;;;;;;;;;;;8.70;99.90;;;;;;5092975;28;20253;-70
2023/07/27 14:14:31;;;;;;;;;;;8.70;99.90;;;;;;5072664;28;20346;-70
2023/07/27 14:16:57;;;;;;;;;;;8.70;99.90;;;;;;5080574;28;20121;-70
2023/07/27 14:19:24;;;;;;;;;;;8.70;99.90;;;;;;5093004;28;19965;-69
2023/07/27 14:21:51;;;;;;;;;;;8.60;99.90;;;;;;5086781;28;19915;-70
2023/07/27 14:24:18;;;;;;;;;;;8.60;99.90;;;;;;5074538;28;20372;-70